Boundry, Indiana
Current Conditions -  °F | °C
As of 4:53 AM on Sunday 26 Oct 2014 (Local Time) from KMIE Reporting Station
Clear Clear  
Wind Chill: 44°   Ceiling: Unl
Heat Index: 47°   Visibility: 10mi
Dew Point: 33°   Wind: 7mph
Humidity: 59%   Direction: 280°W
Pressure: 29.97"   Gusts: NA
Location:  40.4312°N, 85.0058°W
Report Text: KMIE 260853Z AUTO 28006KT 10SM CLR 08/01 A2997 RMK AO2 SLP142 T00830006 51006
Loading
Personal Weather Stations






























Interactive Weather Map
Tropical Storm Tracking
New forecast layout! Learn more

10-Day Weather Forecast

Advertisements
Track Severe Weather on mobile